Terminal Aerodrome Forecast
Issued by NWS Louisville, KY

Home | Current Version | Previous Version | Text Only | Print | Product List | Glossary On
Versions: 1 2 3 4 5 6 7 8 9 10 11 12 13 14 15 16 17 18 19
969
FTUS43 KLMK 230540
TAFBWG
TAF
KBWG 230540Z 2306/2406 09014KT 5SM RA OVC040 WS020/11049KT
     FM230900 11013KT 6SM -RA OVC022
      TEMPO 2310/2314 3SM RA BKN015
     FM231400 12012KT P6SM VCSH OVC025
     FM232000 11010KT P6SM VCSH BKN035
     FM240000 10007KT P6SM -SHRA OVC045=

USA.gov is the U.S. government's official web portal to all federal, state and local government web resources and services.